Time;durP1;ratioP1;P1;durP2;ratioP2;P2;SDS_P1;SDS_P2;PMS_P1;PMS_P2;Temp;Humidity;BMP_temperature;BMP_pressure;BME280_temperature;BME280_humidity;BME280_pressure;Samples;Min_cycle;Max_cycle;Signal;HPM_P1;HPM_P2
2022/11/10 06:05:36;;;;;;;;;11.75;9.50;;;;;9.36;71.55;102269.06;3042666;22;45571;-89
2022/11/10 06:06:47;;;;;;;;;13.75;8.50;;;;;9.35;71.75;102262.06;3042279;22;47073;-90
2022/11/10 06:07:58;;;;;;;;;12.50;11.00;;;;;9.36;71.94;102268.22;3031067;22;45208;-90
2022/11/10 06:09:08;;;;;;;;;12.00;11.25;;;;;9.37;71.88;102267.31;3032282;22;47162;-91
2022/11/10 06:10:18;;;;;;;;;10.50;9.00;;;;;9.38;71.95;102267.31;3048245;22;45188;-90
2022/11/10 06:11:29;;;;;;;;;9.75;9.75;;;;;9.38;71.98;102269.06;3043002;22;48475;-91
2022/11/10 06:12:39;;;;;;;;;11.50;10.00;;;;;9.40;71.92;102268.19;3030567;22;45167;-91
2022/11/10 06:13:49;;;;;;;;;11.25;11.25;;;;;9.41;72.04;102266.41;3031688;22;47017;-89
2022/11/10 06:15:00;;;;;;;;;15.25;11.00;;;;;9.36;71.37;102258.56;3047265;22;44594;-88
2022/11/10 06:16:10;;;;;;;;;12.50;12.50;;;;;9.40;71.94;102270.81;3059137;22;46359;-90
2022/11/10 06:17:21;;;;;;;;;15.50;13.00;;;;;9.38;72.05;102269.94;3059216;22;45145;-89
2022/11/10 06:18:31;;;;;;;;;11.00;11.00;;;;;9.40;71.85;102267.31;3058597;22;45209;-90
2022/11/10 06:19:42;;;;;;;;;13.00;12.00;;;;;9.39;71.82;102265.56;3042566;22;45136;-89
2022/11/10 06:20:52;;;;;;;;;10.25;10.25;;;;;9.41;71.81;102272.53;3047741;22;46106;-89
2022/11/10 06:22:03;;;;;;;;;12.25;11.50;;;;;9.43;71.70;102276.03;3059841;22;45146;-89
2022/11/10 06:23:13;;;;;;;;;13.50;10.25;;;;;9.42;71.69;102274.31;3042455;22;47503;-89
2022/11/10 06:24:24;;;;;;;;;16.75;13.50;;;;;9.42;71.37;102282.19;3031541;22;45343;-90
2022/11/10 06:25:36;;;;;;;;;10.50;9.50;;;;;9.43;71.77;102277.81;3031327;22;47839;-90
2022/11/10 06:26:46;;;;;;;;;14.75;12.50;;;;;9.41;71.60;102276.91;3042663;22;45321;-90
2022/11/10 06:27:57;;;;;;;;;10.75;10.75;;;;;9.45;71.71;102278.66;3046405;22;51017;-91
2022/11/10 06:29:07;;;;;;;;;16.25;13.00;;;;;9.43;71.78;102283.91;3042041;22;45345;-91
2022/11/10 06:30:18;;;;;;;;;16.25;13.75;;;;;9.43;71.59;102281.28;3047369;22;46365;-91
2022/11/10 06:31:28;;;;;;;;;13.50;11.50;;;;;9.42;71.54;102279.56;3056999;22;44719;-90
2022/11/10 06:32:42;;;;;;;;;14.75;13.75;;;;;9.39;71.52;102276.94;3041889;22;48505;-91
2022/11/10 06:33:53;;;;;;;;;16.50;12.75;;;;;9.43;71.65;102283.06;3047968;22;45293;-89
2022/11/10 06:35:03;;;;;;;;;17.50;13.50;;;;;9.43;71.86;102290.94;3041849;22;47178;-90
2022/11/10 06:36:14;;;;;;;;;17.75;14.50;;;;;9.41;71.80;102288.28;3047467;22;45176;-91
2022/11/10 06:37:25;;;;;;;;;15.25;13.00;;;;;9.42;71.84;102295.31;3057262;22;46759;-90
2022/11/10 06:38:35;;;;;;;;;15.00;12.50;;;;;9.44;71.54;102290.03;3058907;22;45099;-91
2022/11/10 06:39:46;;;;;;;;;15.75;14.00;;;;;9.41;72.02;102288.28;3042123;22;46765;-91
2022/11/10 06:40:56;;;;;;;;;15.00;13.00;;;;;9.43;71.70;102302.28;3042439;22;45641;-91
2022/11/10 06:42:07;;;;;;;;;12.50;12.50;;;;;9.42;71.60;102295.31;3031101;22;46986;-90
2022/11/10 06:43:17;;;;;;;;;11.25;11.00;;;;;9.42;71.66;102297.91;3031783;22;44594;-90
2022/11/10 06:44:27;;;;;;;;;15.00;12.00;;;;;9.42;71.33;102300.53;3042660;22;46765;-91
2022/11/10 06:45:38;;;;;;;;;15.00;13.00;;;;;9.42;71.91;102305.78;3031451;22;45234;-91
2022/11/10 06:46:48;;;;;;;;;12.25;11.25;;;;;9.42;71.71;102308.41;3046693;22;47065;-90
2022/11/10 06:48:04;;;;;;;;;11.50;11.50;;;;;9.42;71.58;102310.16;3058708;22;45164;-91
2022/11/10 06:49:14;;;;;;;;;15.25;10.75;;;;;9.43;71.87;102311.94;3059140;22;46348;-91
2022/11/10 06:50:25;;;;;;;;;9.75;8.25;;;;;9.43;71.87;102317.19;3042211;22;45290;-90
2022/11/10 06:51:35;;;;;;;;;17.25;12.25;;;;;9.40;71.85;102312.81;3046668;22;46711;-90
2022/11/10 06:52:53;;;;;;;;;13.50;12.25;;;;;9.43;71.78;102319.78;3042796;22;44707;-90
2022/11/10 06:54:03;;;;;;;;;16.00;11.50;;;;;9.43;71.88;102314.56;3041947;22;47109;-92
2022/11/10 06:55:14;;;;;;;;;11.50;9.00;;;;;9.43;71.80;102327.66;3030677;22;44554;-91
2022/11/10 06:56:24;;;;;;;;;12.00;11.00;;;;;9.43;71.98;102332.91;3042226;22;46941;-89
2022/11/10 06:57:38;;;;;;;;;10.25;9.00;;;;;9.41;72.16;102325.03;3047696;22;44699;-93
2022/11/10 06:58:48;;;;;;;;;14.25;11.50;;;;;9.41;72.03;102322.41;3058319;22;47193;-90
2022/11/10 06:59:59;;;;;;;;;12.00;11.25;;;;;9.43;71.34;102327.66;3059136;22;44575;-91
2022/11/10 07:01:09;;;;;;;;;18.00;12.25;;;;;9.42;71.71;102326.78;3059553;22;45273;-91
2022/11/10 07:02:20;;;;;;;;;16.50;14.50;;;;;9.42;71.90;102331.16;3058510;22;45254;-91
2022/11/10 07:03:30;;;;;;;;;12.00;10.75;;;;;9.42;71.83;102332.03;3042742;22;47445;-90
2022/11/10 07:04:44;;;;;;;;;15.50;13.00;;;;;9.42;71.95;102337.28;3046858;22;44600;-90
2022/11/10 07:05:54;;;;;;;;;13.00;12.50;;;;;9.43;71.80;102336.41;3042078;22;47327;-90
2022/11/10 07:07:04;;;;;;;;;12.50;12.50;;;;;9.43;71.88;102335.53;3042963;22;45322;-91
2022/11/10 07:08:15;;;;;;;;;11.75;11.75;;;;;9.42;72.04;102337.28;3030590;22;47777;-91
2022/11/10 07:09:25;;;;;;;;;16.25;15.00;;;;;9.42;72.03;102337.28;3047576;22;45324;-91
2022/11/10 07:10:36;;;;;;;;;15.75;14.50;;;;;9.43;71.88;102348.66;3058826;22;46488;-91
2022/11/10 07:11:46;;;;;;;;;11.75;11.00;;;;;9.44;71.99;102347.78;3042936;22;45120;-90
2022/11/10 07:12:58;;;;;;;;;15.00;12.75;;;;;9.43;71.92;102344.28;3031941;22;48374;-91
2022/11/10 07:14:08;;;;;;;;;15.75;11.75;;;;;9.47;71.99;102349.53;3047425;22;44684;-90
2022/11/10 07:15:19;;;;;;;;;12.50;12.25;;;;;9.43;72.02;102341.66;3042985;22;48039;-91
2022/11/10 07:16:29;;;;;;;;;12.00;12.00;;;;;9.45;72.14;102357.41;3048136;22;45129;-90
2022/11/10 07:17:40;;;;;;;;;13.75;13.00;;;;;9.46;71.93;102359.13;3058344;22;47783;-90
2022/11/10 07:18:50;;;;;;;;;16.00;15.00;;;;;9.46;72.05;102361.75;3059051;22;45167;-90
2022/11/10 07:20:00;;;;;;;;;13.00;13.00;;;;;9.47;71.93;102370.53;3058600;22;45207;-91
2022/11/10 07:21:10;;;;;;;;;12.25;11.00;;;;;9.44;72.03;102366.16;3057184;22;45218;-90
2022/11/10 07:22:21;;;;;;;;;19.25;15.00;;;;;9.49;71.90;102374.00;3042030;22;50489;-91
2022/11/10 07:23:33;;;;;;;;;18.25;14.00;;;;;9.48;71.87;102378.41;3031693;22;45121;-90
2022/11/10 07:24:44;;;;;;;;;14.75;12.00;;;;;9.47;71.55;102370.53;3047482;22;47168;-90
2022/11/10 07:25:54;;;;;;;;;15.25;12.25;;;;;9.46;71.85;102369.63;3056902;22;45241;-90
2022/11/10 07:27:04;;;;;;;;;12.75;12.25;;;;;9.48;71.97;102375.78;3059321;22;45373;-91
2022/11/10 07:28:15;;;;;;;;;17.50;13.50;;;;;9.48;71.98;102373.16;3057480;22;45229;-91
2022/11/10 07:29:25;;;;;;;;;16.75;12.75;;;;;9.49;71.77;102374.00;3058115;22;46189;-89
2022/11/10 07:30:35;;;;;;;;;17.50;14.00;;;;;9.50;71.70;102373.16;3059368;22;45173;-92
2022/11/10 07:31:46;;;;;;;;;12.00;11.75;;;;;9.47;72.22;102374.03;3057243;22;48013;-91
2022/11/10 07:33:14;;;;;;;;;18.00;15.25;;;;;9.50;72.17;102381.03;3043154;22;45255;-91
2022/11/10 07:34:24;;;;;;;;;15.25;13.25;;;;;9.50;72.32;102375.78;3035508;22;46442;-93
2022/11/10 07:35:34;;;;;;;;;15.25;13.50;;;;;9.52;71.85;102376.63;3047216;22;44623;-91
2022/11/10 07:36:45;;;;;;;;;20.75;15.25;;;;;9.51;72.15;102385.38;3059326;22;45322;-91
2022/11/10 07:37:57;;;;;;;;;16.00;14.00;;;;;9.54;71.84;102388.00;3042969;22;44631;-92
2022/11/10 07:39:07;;;;;;;;;14.00;13.00;;;;;9.52;72.03;102381.88;3042949;22;47174;-92
2022/11/10 07:40:17;;;;;;;;;17.50;16.00;;;;;9.52;72.06;102385.38;3031617;22;45330;-90
2022/11/10 07:41:27;;;;;;;;;16.50;14.75;;;;;9.51;71.93;102382.75;3047857;22;46222;-91
2022/11/10 07:42:39;;;;;;;;;19.75;14.00;;;;;9.53;71.98;102396.78;3043100;22;45159;-91
2022/11/10 07:43:49;;;;;;;;;15.00;14.00;;;;;9.54;72.40;102398.50;3030669;22;47164;-91
2022/11/10 07:44:59;;;;;;;;;10.50;9.50;;;;;9.53;72.05;102399.41;3046803;22;45074;-89
2022/11/10 07:46:10;;;;;;;;;16.00;14.00;;;;;9.53;72.05;102402.03;3057507;22;45263;-91
2022/11/10 07:47:20;;;;;;;;;15.25;14.00;;;;;9.54;71.99;102399.38;3059229;22;45085;-92
2022/11/10 07:48:30;;;;;;;;;17.75;14.75;;;;;9.55;72.26;102401.16;3042286;22;47749;-91
2022/11/10 07:49:41;;;;;;;;;18.75;17.75;;;;;9.59;72.21;102403.75;3042859;22;45160;-91
2022/11/10 07:50:52;;;;;;;;;22.00;19.00;;;;;9.60;72.46;102403.75;3031365;22;46987;-90
2022/11/10 07:52:02;;;;;;;;;19.00;15.00;;;;;9.58;72.21;102397.59;3047318;22;45242;-90
2022/11/10 07:53:15;;;;;;;;;19.75;15.75;;;;;9.63;72.84;102408.97;3042515;22;47899;-91
2022/11/10 07:54:26;;;;;;;;;14.50;14.50;;;;;9.64;72.05;102404.59;3032781;22;45106;-91
2022/11/10 07:55:38;;;;;;;;;8.75;8.00;;;;;9.67;72.39;102416.00;3042505;22;46791;-92
2022/11/10 07:56:49;;;;;;;;;25.75;20.75;;;;;9.71;72.50;102415.97;3047802;22;45282;-91
2022/11/10 07:57:59;;;;;;;;;24.00;21.25;;;;;9.75;72.38;102422.97;3059147;22;46160;-90
2022/11/10 07:59:10;;;;;;;;;22.75;20.25;;;;;9.75;72.27;102420.34;3058909;22;44576;-92
2022/11/10 08:00:20;;;;;;;;;23.50;20.00;;;;;9.80;72.50;102426.47;3058717;22;45309;-90
2022/11/10 08:01:30;;;;;;;;;29.50;20.50;;;;;9.82;72.79;102427.34;3042578;22;45259;-91
2022/11/10 08:02:41;;;;;;;;;23.00;18.50;;;;;9.86;72.22;102436.06;3031415;22;48031;-91
2022/11/10 08:03:51;;;;;;;;;21.75;21.00;;;;;9.90;72.28;102440.47;3046662;22;45124;-91
2022/11/10 08:05:04;;;;;;;;;21.75;19.00;;;;;9.91;72.23;102436.94;3058623;22;45373;-91
2022/11/10 08:06:15;;;;;;;;;25.25;20.75;;;;;9.96;72.38;102443.03;3059140;22;45166;-89
2022/11/10 08:07:25;;;;;;;;;20.75;19.00;;;;;9.99;72.26;102442.16;3042057;22;46913;-91
2022/11/10 08:08:35;;;;;;;;;22.50;20.75;;;;;10.00;72.15;102442.16;3047711;22;45316;-90
2022/11/10 08:09:45;;;;;;;;;25.25;22.00;;;;;10.04;72.06;102450.91;3058994;22;45290;-90
2022/11/10 08:10:57;;;;;;;;;21.75;20.25;;;;;10.09;72.32;102459.66;3042493;22;45203;-92
2022/11/10 08:12:07;;;;;;;;;23.75;21.00;;;;;10.11;72.16;102451.75;3047799;22;45360;-92
2022/11/10 08:13:17;;;;;;;;;21.50;20.25;;;;;10.15;72.56;102455.28;3057081;22;45380;-91
2022/11/10 08:14:27;;;;;;;;;15.00;15.00;;;;;10.23;72.25;102471.88;3041752;22;47502;-90
2022/11/10 08:15:39;;;;;;;;;27.00;22.50;;;;;10.24;72.28;102463.09;3031631;22;44602;-91
2022/11/10 08:16:50;;;;;;;;;22.25;20.25;;;;;10.26;71.87;102456.09;3047057;22;46898;-91
2022/11/10 08:18:03;;;;;;;;;27.50;20.75;;;;;10.33;72.01;102467.44;3042301;22;45263;-92
2022/11/10 08:19:13;;;;;;;;;29.50;24.75;;;;;10.35;71.88;102468.31;3047142;22;47238;-92
2022/11/10 08:20:24;;;;;;;;;21.25;19.25;;;;;10.37;71.99;102473.56;3042438;22;45297;-91
2022/11/10 08:21:34;;;;;;;;;23.50;22.50;;;;;10.43;72.27;102479.69;3031780;22;47031;-92
2022/11/10 08:22:44;;;;;;;;;23.75;18.00;;;;;10.47;71.80;102475.25;3042862;22;45423;-91
2022/11/10 08:23:55;;;;;;;;;24.75;22.00;;;;;10.52;72.01;102481.41;3031199;22;47968;-91
2022/11/10 08:25:05;;;;;;;;;24.25;21.00;;;;;10.57;71.61;102481.38;3030456;22;45247;-91
2022/11/10 08:26:16;;;;;;;;;21.50;20.00;;;;;10.61;71.72;102487.53;3046276;22;45369;-92
2022/11/10 08:27:27;;;;;;;;;24.75;21.00;;;;;10.62;71.54;102487.50;3042575;22;45364;-92
2022/11/10 08:28:37;;;;;;;;;22.50;18.50;;;;;10.68;71.66;102497.13;3046561;22;45179;-90
2022/11/10 08:29:47;;;;;;;;;29.75;24.75;;;;;10.69;71.23;102488.38;3041814;22;45231;-91
2022/11/10 08:30:58;;;;;;;;;26.75;23.50;;;;;10.71;71.40;102477.81;3041963;22;47718;-91
2022/11/10 08:32:08;;;;;;;;;24.50;20.25;;;;;10.76;71.25;102492.72;3031429;22;45172;-90
2022/11/10 08:33:20;;;;;;;;;22.25;18.00;;;;;10.78;71.27;102496.19;3046262;22;47051;-90
2022/11/10 08:34:30;;;;;;;;;22.50;19.50;;;;;10.83;71.30;102497.91;3042161;22;45214;-91
2022/11/10 08:35:43;;;;;;;;;28.25;23.75;;;;;10.86;71.09;102495.28;3047137;22;46315;-90
2022/11/10 08:36:53;;;;;;;;;24.25;21.75;;;;;10.87;71.04;102497.00;3059157;22;45380;-91
2022/11/10 08:38:08;;;;;;;;;26.00;20.25;;;;;10.90;71.15;102499.63;3042514;22;47276;-92
2022/11/10 08:39:19;;;;;;;;;21.00;19.75;;;;;10.91;71.01;102491.72;3048301;22;44662;-91
2022/11/10 08:40:29;;;;;;;;;25.00;21.75;;;;;10.94;70.92;102490.81;3041398;22;46033;-91
2022/11/10 08:41:39;;;;;;;;;25.75;22.00;;;;;10.96;71.21;102496.97;3031641;22;44606;-90
2022/11/10 08:43:00;;;;;;;;;27.25;20.50;;;;;10.96;70.78;102491.72;3042619;22;46843;-91
2022/11/10 08:44:12;;;;;;;;;21.25;20.25;;;;;10.96;70.53;102494.34;3031734;22;44838;-89
2022/11/10 08:45:22;;;;;;;;;31.00;23.50;;;;;10.97;70.53;102497.81;3047495;22;46921;-89
2022/11/10 08:46:32;;;;;;;;;24.00;23.25;;;;;10.99;71.04;102496.06;3057899;22;45269;-91
2022/11/10 08:47:43;;;;;;;;;25.00;19.50;;;;;11.01;70.87;102497.78;3059719;22;45286;-90
2022/11/10 08:48:54;;;;;;;;;25.00;23.00;;;;;11.02;70.75;102498.69;3043280;22;44702;-94
2022/11/10 08:50:06;;;;;;;;;27.50;23.25;;;;;11.05;70.95;102497.78;3043127;22;47300;-94
2022/11/10 08:51:16;;;;;;;;;33.00;26.00;;;;;11.11;70.76;102497.75;3047760;22;45305;-94
2022/11/10 08:52:26;;;;;;;;;29.75;24.75;;;;;11.16;70.86;102497.72;3057214;22;51896;-93
2022/11/10 08:53:37;;;;;;;;;28.00;25.00;;;;;11.16;70.79;102498.56;3043213;22;44680;-88
2022/11/10 08:54:47;;;;;;;;;27.75;23.75;;;;;11.21;70.58;102504.69;3030923;22;46809;-90
2022/11/10 08:55:58;;;;;;;;;26.50;23.00;;;;;11.23;70.88;102500.31;3047361;22;45245;-90
2022/11/10 08:57:08;;;;;;;;;34.50;28.75;;;;;11.29;70.39;102503.75;3059104;22;45229;-90
2022/11/10 08:58:21;;;;;;;;;28.25;23.00;;;;;11.32;70.60;102506.38;3059121;22;45157;-90
2022/11/10 08:59:31;;;;;;;;;28.25;25.50;;;;;11.31;70.11;102500.22;3042671;22;47061;-90
2022/11/10 09:00:42;;;;;;;;;27.00;24.25;;;;;11.33;70.46;102513.41;3032532;22;45169;-89
2022/11/10 09:01:52;;;;;;;;;27.75;24.50;;;;;11.34;69.92;102521.25;3042861;22;46987;-89
2022/11/10 09:03:06;;;;;;;;;27.25;24.00;;;;;11.36;70.30;102518.63;3031500;22;45259;-90
2022/11/10 09:04:16;;;;;;;;;26.50;23.50;;;;;11.39;70.21;102512.44;3047662;22;45303;-90
2022/11/10 09:05:27;;;;;;;;;32.75;25.25;;;;;11.41;69.94;102514.19;3058384;22;45494;-89
2022/11/10 09:06:37;;;;;;;;;16.75;14.00;;;;;11.42;69.92;102523.84;3059573;22;46346;-90
2022/11/10 09:07:49;;;;;;;;;32.50;25.25;;;;;11.47;70.13;102524.69;3059376;22;45189;-90
2022/11/10 09:08:59;;;;;;;;;25.00;20.50;;;;;11.48;69.75;102522.94;3058025;22;47104;-91
2022/11/10 09:10:10;;;;;;;;;26.50;22.25;;;;;11.50;69.77;102521.16;3058853;22;45227;-90
2022/11/10 09:11:20;;;;;;;;;23.25;21.00;;;;;11.48;69.72;102521.16;3059454;22;46242;-90
2022/11/10 09:12:30;;;;;;;;;25.00;19.00;;;;;11.53;69.98;102525.53;3059808;22;45167;-90
2022/11/10 09:13:41;;;;;;;;;31.50;25.00;;;;;11.57;70.17;102521.97;3042327;22;46943;-89
2022/11/10 09:14:51;;;;;;;;;27.50;23.75;;;;;11.59;69.79;102518.44;3048341;22;45183;-90
2022/11/10 09:16:04;;;;;;;;;27.50;23.00;;;;;11.60;69.62;102519.31;3059592;22;45986;-89
2022/11/10 09:17:14;;;;;;;;;25.75;22.50;;;;;11.64;69.93;102525.41;3057955;22;45297;-90
2022/11/10 09:18:25;;;;;;;;;24.00;20.00;;;;;11.66;70.40;102531.53;3058923;22;46329;-90
2022/11/10 09:19:36;;;;;;;;;26.75;22.00;;;;;11.69;70.03;102529.78;3058248;22;45274;-89
2022/11/10 09:20:46;;;;;;;;;26.25;23.50;;;;;11.72;69.78;102531.50;3058665;22;45396;-91
2022/11/10 09:21:56;;;;;;;;;24.75;21.75;;;;;11.72;69.74;102535.91;3042841;22;45329;-89
2022/11/10 09:23:13;;;;;;;;;30.25;25.50;;;;;11.74;69.77;102540.25;3042869;22;47080;-91
2022/11/10 09:24:23;;;;;;;;;28.25;26.00;;;;;11.76;69.75;102537.59;3033232;22;45097;-91
2022/11/10 09:25:34;;;;;;;;;30.00;25.75;;;;;11.80;69.86;102547.25;3047987;22;45353;-90
2022/11/10 09:26:46;;;;;;;;;26.75;26.50;;;;;11.82;69.81;102542.84;3059465;22;45376;-91
2022/11/10 09:27:56;;;;;;;;;39.25;30.00;;;;;11.88;69.80;102555.94;3042817;22;47370;-90
2022/11/10 09:29:07;;;;;;;;;27.75;26.00;;;;;11.88;69.54;102550.66;3048312;22;45394;-90
2022/11/10 09:30:17;;;;;;;;;32.50;28.50;;;;;11.92;69.44;102551.53;3059084;22;46166;-89
2022/11/10 09:31:27;;;;;;;;;32.00;27.00;;;;;11.94;69.55;102544.47;3042918;22;45425;-90
2022/11/10 09:32:38;;;;;;;;;26.50;22.50;;;;;11.97;69.35;102552.38;3047210;22;45214;-90
2022/11/10 09:33:48;;;;;;;;;28.25;22.75;;;;;11.98;69.41;102547.94;3043265;22;45267;-90
2022/11/10 09:34:59;;;;;;;;;28.75;24.25;;;;;11.98;69.47;102546.19;3047563;22;45264;-90
2022/11/10 09:36:10;;;;;;;;;35.00;28.50;;;;;12.01;69.44;102550.56;3057924;22;45254;-90
2022/11/10 09:37:20;;;;;;;;;34.50;29.50;;;;;12.07;69.56;102562.81;3053505;22;47104;-89
2022/11/10 09:38:30;;;;;;;;;37.25;29.00;;;;;12.06;69.27;102555.78;3047386;22;45175;-89
2022/11/10 09:39:41;;;;;;;;;38.75;32.00;;;;;12.09;69.39;102550.47;3059544;22;45262;-90
2022/11/10 09:41:01;;;;;;;;;38.75;31.00;;;;;12.13;69.53;102553.09;3059682;22;45132;-89
2022/11/10 09:42:47;;;;;;;;;34.25;30.50;;;;;12.15;69.04;102547.78;3059025;22;45612;-89
2022/11/10 09:44:04;;;;;;;;;31.50;26.00;;;;;12.18;69.26;102560.06;3011684;22;44617;-89
2022/11/10 09:45:24;;;;;;;;;34.50;26.50;;;;;12.21;69.19;102557.41;2997621;22;48402;-88
2022/11/10 09:46:40;;;;;;;;;32.50;27.50;;;;;12.23;69.38;102558.28;3021615;22;45259;-90
2022/11/10 09:48:05;;;;;;;;;30.25;27.25;;;;;12.26;69.39;102553.84;3048916;22;45372;-90
2022/11/10 09:49:47;;;;;;;;;31.75;29.75;;;;;12.29;69.34;102560.84;3043197;22;44577;-89
2022/11/10 09:51:03;;;;;;;;;33.00;28.50;;;;;12.30;69.38;102559.94;3039788;22;46678;-88
2022/11/10 09:52:15;;;;;;;;;34.00;30.00;;;;;12.34;69.24;102564.31;3059866;22;45396;-89
2022/11/10 09:53:52;;;;;;;;;29.50;25.25;;;;;12.36;69.10;102570.44;3059448;22;46155;-89
2022/11/10 09:55:17;;;;;;;;;37.25;31.00;;;;;12.36;68.84;102567.81;3006312;22;45442;-90
2022/11/10 09:56:32;;;;;;;;;37.00;29.75;;;;;12.37;69.00;102561.63;3035282;22;48198;-89
2022/11/10 09:57:43;;;;;;;;;33.25;29.50;;;;;12.38;68.93;102554.59;3048827;22;45185;-90
2022/11/10 09:58:54;;;;;;;;;30.50;28.25;;;;;12.40;68.83;102554.56;3042854;22;48097;-89
2022/11/10 10:00:05;;;;;;;;;33.50;27.00;;;;;12.42;69.17;102551.03;3043273;22;45184;-90
2022/11/10 10:01:34;;;;;;;;;29.75;25.25;;;;;12.47;68.88;102558.91;3047149;22;46227;-88
2022/11/10 10:02:53;;;;;;;;;23.00;19.25;;;;;12.51;68.93;102551.81;3059817;22;45131;-89
2022/11/10 10:04:33;;;;;;;;;32.25;26.75;;;;;12.52;68.50;102562.34;3059674;22;46523;-89
2022/11/10 10:05:46;;;;;;;;;29.25;25.75;;;;;12.54;68.86;102563.22;3059240;22;45206;-90
2022/11/10 10:07:07;;;;;;;;;32.25;28.00;;;;;12.57;68.76;102564.91;3059736;22;45368;-89
2022/11/10 10:08:29;;;;;;;;;34.00;27.00;;;;;12.57;68.69;102555.25;3043280;22;45296;-92
2022/11/10 10:09:48;;;;;;;;;30.50;26.75;;;;;12.60;68.81;102562.25;3042337;22;47563;-90
2022/11/10 10:11:14;;;;;;;;;26.50;23.50;;;;;12.62;68.82;102562.25;3049833;22;45149;-89
2022/11/10 10:12:33;;;;;;;;;36.00;27.00;;;;;12.62;68.71;102570.16;3043012;22;46506;-89
2022/11/10 10:14:31;;;;;;;;;31.25;24.75;;;;;12.63;68.89;102570.13;3049872;22;44726;-89
2022/11/10 10:16:00;;;;;;;;;35.00;26.50;;;;;12.64;68.98;102571.88;2997363;22;47232;-89
2022/11/10 10:17:13;;;;;;;;;29.50;25.50;;;;;12.67;69.21;102573.59;3036096;22;45216;-90
2022/11/10 10:19:12;;;;;;;;;31.75;26.50;;;;;12.67;68.93;102568.31;3032471;22;46357;-89
2022/11/10 10:20:41;;;;;;;;;33.00;27.00;;;;;12.71;69.06;102577.97;3042354;22;45239;-89
2022/11/10 10:22:10;;;;;;;;;30.75;24.75;;;;;12.74;68.57;102582.31;3050883;22;48452;-90
2022/11/10 10:23:35;;;;;;;;;34.00;25.25;;;;;12.74;68.49;102585.81;3043132;22;45191;-89
2022/11/10 10:24:47;;;;;;;;;29.50;27.25;;;;;12.77;68.81;102584.91;3051401;22;46205;-90
2022/11/10 10:25:58;;;;;;;;;30.25;27.50;;;;;12.78;68.64;102587.53;3057059;22;44602;-88
2022/11/10 10:27:20;;;;;;;;;32.50;27.50;;;;;12.82;68.90;102593.63;3057737;22;45497;-87
2022/11/10 10:28:36;;;;;;;;;32.50;25.00;;;;;12.85;68.41;102596.25;3043164;22;44534;-87
2022/11/10 10:29:50;;;;;;;;;26.25;21.75;;;;;12.86;68.42;102595.38;3049289;22;45246;-87
2022/11/10 10:31:21;;;;;;;;;30.00;24.50;;;;;12.89;68.40;102605.00;3059063;22;45180;-86
2022/11/10 10:32:31;;;;;;;;;25.00;24.00;;;;;12.91;68.31;102603.22;3042861;22;48178;-87
2022/11/10 10:33:42;;;;;;;;;35.00;25.25;;;;;12.91;68.25;102597.94;3043144;22;45193;-88
2022/11/10 10:34:52;;;;;;;;;22.25;22.25;;;;;12.91;68.27;102604.06;3031733;22;47271;-87
2022/11/10 10:36:24;;;;;;;;;32.25;26.50;;;;;12.94;67.93;102603.16;3048019;22;45469;-87
2022/11/10 10:37:43;;;;;;;;;24.00;22.50;;;;;12.93;68.56;102602.31;3042821;22;47436;-88
2022/11/10 10:39:01;;;;;;;;;28.25;25.25;;;;;12.96;67.81;102611.97;3049490;22;44729;-86
2022/11/10 10:40:18;;;;;;;;;34.75;29.25;;;;;12.97;68.29;102623.34;3058664;22;45202;-86
2022/11/10 10:41:31;;;;;;;;;32.50;26.00;;;;;12.99;68.45;102629.53;3057950;22;44550;-87
2022/11/10 10:42:41;;;;;;;;;33.75;25.25;;;;;13.02;68.17;102624.19;3058676;22;45805;-87
2022/11/10 10:43:56;;;;;;;;;29.25;23.25;;;;;13.03;68.25;102629.47;3059764;22;45104;-88
2022/11/10 10:45:22;;;;;;;;;26.00;20.50;;;;;13.07;68.45;102626.75;3042736;22;48076;-87
2022/11/10 10:46:44;;;;;;;;;25.25;23.75;;;;;13.09;68.13;102636.41;3051305;22;45366;-88
2022/11/10 10:47:56;;;;;;;;;32.50;28.25;;;;;13.12;68.54;102638.13;3042882;22;46917;-87
2022/11/10 10:49:16;;;;;;;;;32.75;25.25;;;;;13.12;67.89;102639.00;3032465;22;45262;-87
2022/11/10 10:50:42;;;;;;;;;31.25;27.50;;;;;13.13;68.09;102640.78;3033752;22;47312;-87
2022/11/10 10:52:04;;;;;;;;;39.75;31.00;;;;;13.15;67.82;102646.91;3051137;22;45178;-87
2022/11/10 10:53:21;;;;;;;;;34.75;29.50;;;;;13.17;68.16;102636.31;3059464;22;45518;-87
2022/11/10 10:54:34;;;;;;;;;31.00;29.50;;;;;13.20;68.11;102643.31;3043051;22;45158;-85
2022/11/10 10:56:03;;;;;;;;;37.75;33.25;;;;;13.22;67.83;102637.13;3048358;22;46121;-87
2022/11/10 10:57:27;;;;;;;;;36.50;31.00;;;;;13.24;68.04;102632.69;3059696;22;45179;-87
2022/11/10 10:58:53;;;;;;;;;40.50;30.00;;;;;13.27;68.28;102637.94;3042932;22;46972;-86
2022/11/10 11:00:20;;;;;;;;;45.75;36.25;;;;;13.30;67.89;102636.13;3035671;22;45254;-86
2022/11/10 11:01:35;;;;;;;;;29.25;28.50;;;;;13.31;67.72;102628.19;3035157;22;47023;-87
2022/11/10 11:03:25;;;;;;;;;43.75;36.25;;;;;13.33;67.68;102625.53;3033203;22;44652;-87
2022/11/10 11:04:36;;;;;;;;;37.75;28.50;;;;;13.33;68.16;102622.91;3039977;22;47226;-87
2022/11/10 11:06:20;;;;;;;;;33.25;24.75;;;;;13.36;67.77;102620.19;3030214;22;45247;-85
2022/11/10 11:07:31;;;;;;;;;37.25;33.50;;;;;13.34;67.96;102617.59;3012779;22;45505;-87
2022/11/10 11:09:06;;;;;;;;;33.00;28.50;;;;;13.38;67.20;102613.16;3038081;22;45353;-88
2022/11/10 11:10:22;;;;;;;;;33.25;30.00;;;;;13.38;67.79;102614.00;3035746;22;46622;-87
2022/11/10 11:11:35;;;;;;;;;43.00;33.50;;;;;13.43;67.83;102621.88;3049188;22;45173;-87
2022/11/10 11:12:46;;;;;;;;;42.50;35.00;;;;;13.44;67.31;102613.03;3059022;22;46350;-87
2022/11/10 11:14:19;;;;;;;;;40.75;32.75;;;;;13.47;67.30;102618.28;3057256;22;45385;-88
2022/11/10 11:15:30;;;;;;;;;39.00;34.50;;;;;13.49;67.49;102613.84;3059117;22;45340;-86
2022/11/10 11:16:47;;;;;;;;;28.25;21.00;;;;;13.49;67.54;102619.13;3042933;22;45178;-88
2022/11/10 11:18:01;;;;;;;;;41.25;31.00;;;;;13.49;67.35;102616.50;3049211;22;45419;-88
2022/11/10 11:19:11;;;;;;;;;34.50;32.75;;;;;13.52;67.07;102610.28;3058155;22;44649;-88
2022/11/10 11:20:43;;;;;;;;;36.00;32.25;;;;;13.52;67.52;102606.75;3058206;22;46523;-88
2022/11/10 11:22:21;;;;;;;;;39.25;34.25;;;;;13.55;67.20;102606.72;3042861;22;45407;-87
2022/11/10 11:23:51;;;;;;;;;37.25;31.00;;;;;13.56;67.29;102612.00;3037840;22;47287;-87
2022/11/10 11:25:13;;;;;;;;;35.25;28.25;;;;;13.59;67.52;102614.63;3036139;22;45173;-88
2022/11/10 11:26:36;;;;;;;;;41.75;35.00;;;;;13.61;67.28;102612.81;3034270;22;45930;-88
2022/11/10 11:28:02;;;;;;;;;36.50;29.75;;;;;13.62;67.16;102613.69;3042900;22;45404;-88
2022/11/10 11:29:31;;;;;;;;;35.00;29.25;;;;;13.65;67.32;102618.06;3050483;22;47149;-87
2022/11/10 11:30:41;;;;;;;;;39.50;29.25;;;;;13.65;67.12;102615.41;3059264;22;45183;-88
2022/11/10 11:32:03;;;;;;;;;24.75;24.25;;;;;13.66;67.26;102614.50;3058929;22;45387;-87
2022/11/10 11:33:27;;;;;;;;;25.25;20.50;;;;;13.66;67.16;102612.75;3059652;22;45250;-87
2022/11/10 11:34:53;;;;;;;;;36.00;29.25;;;;;13.68;67.24;102616.22;3042246;22;48042;-87
2022/11/10 11:36:15;;;;;;;;;29.25;26.00;;;;;13.69;67.54;102615.34;3035373;22;45425;-87
2022/11/10 11:37:54;;;;;;;;;29.25;22.25;;;;;13.71;67.06;102615.31;3034063;22;47267;-87
2022/11/10 11:39:27;;;;;;;;;35.75;26.50;;;;;13.73;67.03;102614.38;3037495;22;45266;-87
2022/11/10 11:41:01;;;;;;;;;29.00;21.75;;;;;13.72;67.33;102611.78;3052823;22;46291;-88
2022/11/10 11:42:24;;;;;;;;;23.75;22.75;;;;;13.75;67.25;102618.78;3059646;22;45191;-89
2022/11/10 11:43:55;;;;;;;;;29.50;27.25;;;;;13.76;67.21;102609.94;3059359;22;45414;-88
2022/11/10 11:45:19;;;;;;;;;28.50;24.50;;;;;13.80;67.06;102619.59;3042988;22;45264;-88
2022/11/10 11:46:35;;;;;;;;;29.50;24.50;;;;;13.81;67.21;102614.25;3034093;22;46716;-88